Time;durP1;ratioP1;P1;durP2;ratioP2;P2;SDS_P1;SDS_P2;PMS_P1;PMS_P2;Temp;Humidity;BMP_temperature;BMP_pressure;BME280_temperature;BME280_humidity;BME280_pressure;Samples;Min_cycle;Max_cycle;Signal;HPM_P1;HPM_P2
2023/12/18 00:02:26;;;;;;;35.30;19.48;;;10.10;99.90;;;10.44;97.33;103069.63;4880566;29;20045;-71
2023/12/18 00:04:54;;;;;;;33.35;20.02;;;10.20;99.90;;;10.46;97.05;103082.06;4880564;29;20049;-71
2023/12/18 00:07:23;;;;;;;38.70;19.08;;;10.20;99.90;;;9.76;96.64;102940.47;4880305;29;20131;-71
2023/12/18 00:09:51;;;;;;;38.08;19.52;;;10.20;99.90;;;10.53;96.63;103084.03;4880649;29;20121;-71
2023/12/18 00:12:20;;;;;;;34.78;20.15;;;10.20;99.90;;;10.61;96.55;103081.63;4880434;29;20427;-71
2023/12/18 00:14:49;;;;;;;39.47;19.60;;;10.30;99.90;;;10.64;96.00;103073.81;4880359;29;20045;-71
2023/12/18 00:17:17;;;;;;;35.97;20.35;;;10.30;99.90;;;10.52;95.96;103069.03;4880302;29;20053;-72
2023/12/18 00:19:46;;;;;;;32.15;18.73;;;10.30;99.90;;;10.59;96.13;103072.75;4894460;29;20048;-67
2023/12/18 00:22:14;;;;;;;37.17;20.00;;;10.30;99.90;;;10.53;96.14;103062.00;4880240;29;20052;-71
2023/12/18 00:24:42;;;;;;;31.05;18.92;;;10.30;99.90;;;10.50;96.18;103059.25;4880271;29;20120;-70
2023/12/18 00:27:11;;;;;;;29.20;19.58;;;10.30;99.90;;;10.49;96.50;103054.81;4880153;29;20447;-70
2023/12/18 00:29:41;;;;;;;34.92;19.02;;;10.20;99.90;;;10.38;96.59;103050.91;4878752;29;20503;-71
2023/12/18 00:32:09;;;;;;;32.42;18.55;;;10.20;99.90;;;10.52;96.81;103049.59;4879976;29;20053;-71
2023/12/18 00:34:41;;;;;;;33.08;17.73;;;10.20;99.90;;;10.58;96.53;103049.81;4880123;29;20417;-70
2023/12/18 00:37:09;;;;;;;37.63;19.55;;;10.30;99.90;;;10.47;96.60;103060.03;4879974;29;20128;-71
2023/12/18 00:39:38;;;;;;;35.58;18.88;;;10.20;99.90;;;10.58;96.92;103042.75;4879881;29;20060;-70
2023/12/18 00:42:07;;;;;;;34.58;17.95;;;10.30;99.90;;;10.60;96.66;103045.44;4879801;29;20085;-71
2023/12/18 00:44:35;;;;;;;34.20;18.77;;;10.30;99.90;;;10.55;96.53;103039.13;4879610;29;20037;-71
2023/12/18 00:47:05;;;;;;;31.80;18.27;;;10.30;99.90;;;10.56;96.90;103039.19;4879969;29;20555;-70
2023/12/18 00:49:34;;;;;;;32.72;18.48;;;10.30;99.90;;;10.64;96.67;103052.63;4880248;29;20049;-70
2023/12/18 00:52:03;;;;;;;37.50;19.85;;;10.40;99.90;;;10.71;96.23;103054.59;4878589;29;20053;-70
2023/12/18 00:54:31;;;;;;;41.50;18.95;;;10.40;99.90;;;10.71;96.10;103054.59;4879550;29;20052;-70
2023/12/18 00:56:59;;;;;;;33.63;17.95;;;10.40;99.90;;;10.81;95.99;103047.00;4879719;29;20080;-70
2023/12/18 00:59:28;;;;;;;34.22;18.05;;;10.50;99.90;;;10.80;96.11;103049.59;4879679;29;20136;-71
2023/12/18 01:01:57;;;;;;;31.13;17.65;;;10.50;99.90;;;10.80;95.94;103042.53;4879696;29;20041;-71
2023/12/18 01:04:26;;;;;;;36.38;17.38;;;10.50;99.90;;;10.81;96.07;103035.50;4879414;29;20184;-70
2023/12/18 01:06:55;;;;;;;33.45;17.23;;;10.50;99.90;;;10.80;96.27;103029.28;4880120;29;20045;-71
2023/12/18 01:09:23;;;;;;;33.85;17.27;;;10.50;99.90;;;10.74;96.07;103029.13;4879265;29;20105;-71
2023/12/18 01:11:52;;;;;;;30.83;17.15;;;10.50;99.90;;;10.73;96.28;103031.72;4879131;29;20463;-71
2023/12/18 01:14:20;;;;;;;30.70;17.08;;;10.50;99.90;;;10.71;96.46;103020.19;4879145;29;20113;-70
2023/12/18 01:16:49;;;;;;;30.23;17.45;;;10.40;99.90;;;10.55;96.73;103015.31;4879324;29;20136;-71
2023/12/18 01:19:17;;;;;;;37.28;16.83;;;10.30;99.90;;;10.64;97.37;103019.13;4879049;29;20051;-70
2023/12/18 01:21:47;;;;;;;33.63;17.88;;;10.40;99.90;;;10.61;97.14;103026.97;4879073;29;20059;-70
2023/12/18 01:24:16;;;;;;;31.90;16.25;;;10.40;99.90;;;10.64;97.58;103027.06;4879051;29;20045;-71
2023/12/18 01:26:45;;;;;;;32.55;17.42;;;10.30;99.90;;;10.61;97.83;103026.97;4879278;29;20084;-71
2023/12/18 01:29:13;;;;;;;37.53;17.38;;;10.30;99.90;;;10.66;97.45;103019.19;4909303;29;20049;-71
2023/12/18 01:31:42;;;;;;;30.83;17.45;;;10.40;99.90;;;10.65;97.51;103017.34;4878695;29;20052;-71
2023/12/18 01:34:10;;;;;;;36.63;17.88;;;10.30;99.90;;;10.62;97.90;103018.19;4879159;29;20065;-71
2023/12/18 01:36:38;;;;;;;35.53;18.13;;;10.30;99.90;;;10.57;97.92;103003.91;4878835;29;20155;-71
2023/12/18 01:39:08;;;;;;;35.03;17.42;;;10.30;99.90;;;10.50;98.19;103007.22;4878778;29;20072;-71
2023/12/18 01:41:37;;;;;;;32.37;17.00;;;10.30;99.90;;;10.58;98.14;103004.81;4879106;29;20053;-71
2023/12/18 01:44:05;;;;;;;29.88;18.08;;;10.30;99.90;;;10.65;98.13;103009.41;4878827;29;20148;-70
2023/12/18 01:46:36;;;;;;;37.47;19.85;;;10.40;99.90;;;10.59;97.76;103006.59;4878879;29;20064;-71
2023/12/18 01:49:06;;;;;;;35.53;19.77;;;10.30;99.90;;;10.66;97.66;103019.19;4878842;29;20053;-71
2023/12/18 01:51:36;;;;;;;34.22;18.85;;;10.30;99.90;;;10.65;97.43;103018.28;4879232;29;20041;-70
2023/12/18 01:54:08;;;;;;;32.13;18.77;;;10.40;99.90;;;10.67;97.72;103040.38;4878870;29;20145;-71
2023/12/18 01:56:37;;;;;;;31.83;17.58;;;10.40;99.90;;;10.70;97.61;103021.06;4878948;29;20104;-71
2023/12/18 01:59:07;;;;;;;35.85;18.23;;;10.40;99.90;;;10.71;97.49;103028.13;4878689;29;20049;-71
2023/12/18 02:01:36;;;;;;;33.85;17.90;;;10.40;99.90;;;10.63;97.48;103035.84;4878927;29;20076;-70
2023/12/18 02:04:06;;;;;;;28.55;18.50;;;10.40;99.90;;;10.64;97.68;103039.41;4878692;29;20507;-71
2023/12/18 02:06:34;;;;;;;30.52;18.85;;;10.40;99.90;;;10.70;97.65;103031.66;4893397;29;20055;-71
2023/12/18 02:09:04;;;;;;;31.52;19.17;;;10.40;99.90;;;10.64;97.79;103029.72;4893362;29;20554;-71
2023/12/18 02:11:34;;;;;;;39.40;20.35;;;10.40;99.90;;;10.63;97.96;103025.25;4908904;29;20088;-73
2023/12/18 02:14:02;;;;;;;38.03;19.67;;;10.40;99.90;;;10.66;97.90;103022.72;4878495;29;20139;-70
2023/12/18 02:16:31;;;;;;;35.47;19.55;;;10.40;99.90;;;10.68;97.93;103022.75;4892845;29;20049;-71
2023/12/18 02:18:59;;;;;;;30.48;19.67;;;10.40;99.90;;;10.67;97.73;103019.22;4878349;29;20065;-71
2023/12/18 02:21:28;;;;;;;35.10;19.95;;;10.40;99.90;;;10.70;97.76;103007.81;4878374;29;20060;-70
2023/12/18 02:23:57;;;;;;;34.45;20.35;;;10.40;99.90;;;10.69;97.69;103014.88;4878319;29;20109;-70
2023/12/18 02:26:26;;;;;;;38.80;19.85;;;10.40;99.90;;;10.69;97.37;103009.56;4878430;29;20049;-71
2023/12/18 02:28:54;;;;;;;38.60;20.77;;;10.40;99.90;;;10.69;97.28;103006.91;4878276;29;20072;-71
2023/12/18 02:31:22;;;;;;;31.92;19.55;;;10.40;99.90;;;10.72;97.47;103011.41;4892787;29;20053;-71
2023/12/18 02:33:51;;;;;;;33.17;20.13;;;10.40;99.90;;;10.64;96.98;103011.19;4878284;29;20076;-71
2023/12/18 02:36:20;;;;;;;38.58;20.95;;;10.40;99.90;;;10.64;97.32;103007.63;4878220;29;20057;-71
2023/12/18 02:38:48;;;;;;;34.45;21.45;;;10.40;99.90;;;10.66;97.32;103005.94;4878108;29;20053;-71
2023/12/18 02:41:18;;;;;;;36.00;21.17;;;10.40;99.90;;;10.57;97.08;102998.59;4878435;29;20057;-70
2023/12/18 02:43:46;;;;;;;36.67;21.10;;;10.40;99.90;;;10.50;97.74;102991.34;4881109;29;20059;-71
2023/12/18 02:46:15;;;;;;;36.00;21.38;;;10.30;99.90;;;10.60;97.58;103005.75;4882031;29;20833;-71
2023/12/18 02:48:43;;;;;;;32.55;21.02;;;10.30;99.90;;;10.56;97.40;102993.28;4881888;29;20045;-71
2023/12/18 02:51:12;;;;;;;32.35;21.05;;;10.30;99.90;;;10.60;97.42;102992.53;4881792;29;20045;-71
2023/12/18 02:53:40;;;;;;;33.47;21.13;;;10.30;99.90;;;10.52;97.70;103005.53;4881822;29;20059;-71
2023/12/18 02:56:08;;;;;;;33.55;20.33;;;10.30;99.90;;;10.39;97.66;102981.31;4881785;29;20060;-71
2023/12/18 02:58:38;;;;;;;41.20;22.15;;;10.30;99.90;;;10.50;97.83;103012.53;4882069;29;20049;-71
2023/12/18 03:01:06;;;;;;;34.78;22.30;;;10.30;99.90;;;10.43;97.94;102999.06;4881474;29;20400;-72
2023/12/18 03:03:35;;;;;;;30.58;20.85;;;10.20;99.90;;;10.40;98.12;103004.25;4881482;29;20053;-70
2023/12/18 03:06:04;;;;;;;38.83;21.75;;;10.20;99.90;;;10.39;97.98;103007.75;4881463;29;20414;-70
2023/12/18 03:08:33;;;;;;;33.60;20.27;;;10.20;99.90;;;10.39;98.29;102997.19;4895759;29;20415;-72
2023/12/18 03:11:01;;;;;;;33.92;21.08;;;10.10;99.90;;;10.35;98.78;103006.78;4881410;29;20056;-70
2023/12/18 03:13:29;;;;;;;42.47;21.30;;;10.00;99.90;;;10.27;98.71;102992.41;4881369;29;20124;-71
2023/12/18 03:16:00;;;;;;;35.70;21.80;;;10.00;99.90;;;10.22;99.05;103004.56;4881304;29;20053;-72
2023/12/18 03:18:28;;;;;;;34.53;21.90;;;9.90;99.90;;;10.29;99.25;102995.09;4881507;29;20057;-71
2023/12/18 03:20:57;;;;;;;34.38;20.85;;;10.00;99.90;;;10.30;99.40;102986.31;4881175;29;20057;-71
2023/12/18 03:23:25;;;;;;;38.55;21.33;;;10.00;99.90;;;10.19;99.08;102954.25;4881477;29;20038;-70
2023/12/18 03:25:53;;;;;;;33.85;20.15;;;10.00;99.90;;;10.33;99.28;102983.75;4881263;29;20411;-71
2023/12/18 03:28:22;;;;;;;36.17;20.08;;;10.00;99.90;;;10.30;99.49;102971.31;4881635;29;20049;-69
2023/12/18 03:30:50;;;;;;;39.60;21.23;;;10.00;99.90;;;10.33;99.58;102981.09;4895476;29;20124;-69
2023/12/18 03:33:20;;;;;;;34.53;20.67;;;10.00;99.90;;;10.34;99.43;102972.31;4895623;29;20053;-71
2023/12/18 03:35:49;;;;;;;40.38;23.35;;;10.00;99.90;;;10.36;99.39;102967.97;4881225;29;20490;-70
2023/12/18 03:38:17;;;;;;;35.60;21.35;;;10.10;99.90;;;10.35;99.33;102984.69;4881425;29;20041;-70
2023/12/18 03:40:46;;;;;;;34.72;20.00;;;10.10;99.90;;;10.36;99.85;102989.13;4879794;29;20053;-70
2023/12/18 03:43:14;;;;;;;36.78;20.83;;;10.10;99.90;;;10.46;99.60;102993.84;4880856;29;20148;-69
2023/12/18 03:45:43;;;;;;;33.78;20.08;;;10.20;99.90;;;10.53;99.39;102985.25;4880885;29;20428;-70
2023/12/18 03:48:11;;;;;;;35.30;19.83;;;10.20;99.90;;;10.53;99.26;102982.63;4880700;29;20407;-70
2023/12/18 03:50:41;;;;;;;37.45;21.30;;;10.30;99.90;;;10.43;99.58;102980.53;4880982;29;20056;-69
2023/12/18 03:53:09;;;;;;;35.57;20.67;;;10.20;99.90;;;10.47;99.89;102978.00;4881640;29;20052;-70
2023/12/18 03:55:38;;;;;;;33.00;19.98;;;10.20;99.90;;;10.45;99.68;102992.06;4880897;29;20048;-69
2023/12/18 03:58:07;;;;;;;34.95;20.17;;;10.20;99.90;;;10.52;99.72;102972.88;4881644;29;20132;-71
2023/12/18 04:00:35;;;;;;;35.15;18.98;;;10.30;99.90;;;10.47;99.73;102978.00;4881065;29;20058;-70
2023/12/18 04:03:04;;;;;;;33.42;19.23;;;10.20;99.90;;;10.53;99.82;102969.38;4881156;29;20044;-70
2023/12/18 04:05:33;;;;;;;33.63;19.75;;;10.20;99.90;;;10.52;100.00;102975.50;4881109;29;20045;-70
2023/12/18 04:08:03;;;;;;;33.88;19.90;;;10.20;99.90;;;10.49;100.00;102978.09;4895439;29;20132;-70
2023/12/18 04:10:31;;;;;;;34.78;18.63;;;10.20;99.90;;;10.51;100.00;102973.75;4881321;29;20041;-70
2023/12/18 04:13:00;;;;;;;36.08;18.00;;;10.20;99.90;;;10.54;100.00;102971.16;4881055;29;20053;-70
2023/12/18 04:15:28;;;;;;;32.83;18.17;;;10.20;99.90;;;10.54;100.00;102976.47;4880821;29;20439;-70
2023/12/18 04:17:57;;;;;;;31.60;18.55;;;10.30;99.90;;;10.46;100.00;102957.72;4880916;29;20514;-70
2023/12/18 04:20:26;;;;;;;34.72;18.52;;;10.20;99.90;;;10.53;100.00;102958.81;4880734;29;20089;-70
2023/12/18 04:22:54;;;;;;;31.90;17.85;;;10.30;99.90;;;10.46;100.00;102957.72;4881076;29;20121;-70
2023/12/18 04:25:24;;;;;;;34.22;18.65;;;10.30;99.90;;;10.45;100.00;102961.19;4880783;29;20046;-70
2023/12/18 04:27:53;;;;;;;30.00;18.48;;;10.20;99.90;;;10.45;100.00;102955.03;4880720;29;20049;-70
2023/12/18 04:30:21;;;;;;;31.67;18.17;;;10.20;99.90;;;10.53;100.00;102956.16;4880631;29;20052;-70
2023/12/18 04:32:50;;;;;;;37.90;18.38;;;10.30;99.90;;;10.52;100.00;102947.31;4880635;29;20079;-70
2023/12/18 04:35:18;;;;;;;30.02;17.98;;;10.30;99.90;;;10.56;100.00;102951.84;4880709;29;20117;-72
2023/12/18 04:37:47;;;;;;;39.33;20.52;;;10.30;99.90;;;10.38;100.00;102935.41;4879408;29;20136;-70
2023/12/18 04:40:15;;;;;;;35.40;19.58;;;10.30;99.90;;;10.45;100.00;102961.19;4880392;29;20045;-70
2023/12/18 04:42:45;;;;;;;36.20;21.00;;;10.20;99.90;;;10.51;100.00;102958.72;4880493;29;20743;-71
2023/12/18 04:45:14;;;;;;;35.60;20.70;;;10.20;99.90;;;10.43;100.00;102954.97;4880473;29;20411;-71
2023/12/18 04:47:43;;;;;;;35.83;20.85;;;10.20;99.90;;;10.48;100.00;102960.41;4880946;29;20503;-70
2023/12/18 04:50:12;;;;;;;38.78;21.27;;;10.20;99.90;;;10.51;100.00;102958.72;4910406;29;20311;-70
2023/12/18 04:52:40;;;;;;;33.15;19.60;;;10.20;99.90;;;10.59;100.00;102965.16;4880453;29;20049;-73
2023/12/18 04:55:10;;;;;;;29.73;19.40;;;10.30;99.90;;;10.59;100.00;102965.16;4880432;29;20494;-70
2023/12/18 04:57:38;;;;;;;36.13;19.35;;;10.30;99.90;;;10.63;100.00;102967.03;4880200;29;20049;-69
2023/12/18 05:00:10;;;;;;;34.00;20.45;;;10.40;99.90;;;10.64;100.00;102960.00;4880149;29;20045;-69
2023/12/18 05:02:38;;;;;;;29.98;20.80;;;10.40;99.90;;;10.50;100.00;102958.69;4880189;29;20054;-69
2023/12/18 05:05:08;;;;;;;34.35;20.35;;;10.30;99.90;;;10.48;100.00;102957.75;4880105;29;20136;-70
2023/12/18 05:07:36;;;;;;;39.42;21.58;;;10.20;99.90;;;10.47;100.00;102948.03;4878888;29;20049;-69
2023/12/18 05:10:06;;;;;;;37.33;20.88;;;10.20;99.90;;;10.50;100.00;102950.75;4880012;29;20488;-70
2023/12/18 05:12:34;;;;;;;34.60;21.70;;;10.30;99.90;;;10.43;100.00;102951.44;4880011;29;20056;-70
2023/12/18 05:15:03;;;;;;;38.70;21.60;;;10.20;99.90;;;10.34;100.00;102945.84;4879884;29;20044;-70
2023/12/18 05:17:35;;;;;;;35.63;22.05;;;10.10;99.90;;;10.39;100.00;102947.81;4880213;29;20123;-70
2023/12/18 05:20:06;;;;;;;33.78;22.33;;;10.10;99.90;;;10.36;100.00;102946.81;4879683;29;20499;-70
2023/12/18 05:22:34;;;;;;;41.50;22.45;;;10.10;99.90;;;10.38;100.00;102950.38;4880048;29;20121;-70
2023/12/18 05:25:02;;;;;;;43.22;22.15;;;10.10;99.90;;;10.42;100.00;102947.88;4878624;29;20503;-72
2023/12/18 05:27:31;;;;;;;40.67;21.58;;;10.10;99.90;;;10.36;100.00;102942.41;4879819;29;20053;-70
2023/12/18 05:29:59;;;;;;;42.78;22.65;;;10.10;99.90;;;10.42;100.00;102942.59;4879668;29;20490;-70
2023/12/18 05:32:29;;;;;;;37.25;21.42;;;10.10;99.90;;;10.40;100.00;102948.69;4879522;29;20049;-70
2023/12/18 05:34:58;;;;;;;36.88;22.45;;;10.10;99.90;;;10.42;100.00;102949.63;4880029;29;20080;-70
2023/12/18 05:37:27;;;;;;;39.92;23.90;;;10.20;99.90;;;10.47;100.00;102945.41;4879577;29;20094;-70
2023/12/18 05:39:55;;;;;;;38.85;23.25;;;10.20;99.90;;;10.48;100.00;102944.53;4879580;29;20123;-69
2023/12/18 05:42:23;;;;;;;37.70;23.70;;;10.20;99.90;;;10.52;100.00;102946.41;4879326;29;20055;-70
2023/12/18 05:44:52;;;;;;;40.10;25.35;;;10.20;99.90;;;10.49;100.00;102952.50;4879371;29;20076;-71
2023/12/18 05:47:20;;;;;;;35.35;23.60;;;10.20;99.90;;;10.51;100.00;102950.78;4879529;29;20120;-70
2023/12/18 05:49:49;;;;;;;39.83;23.85;;;10.30;99.90;;;10.48;100.00;102957.75;4879458;29;20483;-70
2023/12/18 05:52:22;;;;;;;40.28;22.40;;;10.20;99.90;;;10.48;100.00;102939.22;4879603;29;20136;-70
2023/12/18 05:54:51;;;;;;;37.60;23.20;;;10.20;99.90;;;10.37;100.00;102948.59;4879264;29;20052;-70
2023/12/18 05:57:19;;;;;;;43.22;22.58;;;10.10;99.90;;;10.27;100.00;102922.72;4879179;29;20716;-70
2023/12/18 05:59:48;;;;;;;39.55;22.77;;;10.10;99.90;;;10.41;100.00;102958.44;4879094;29;20530;-70
2023/12/18 06:02:16;;;;;;;37.88;22.73;;;10.10;99.90;;;10.37;100.00;102930.09;4879038;29;20051;-70
2023/12/18 06:04:45;;;;;;;37.40;22.50;;;10.20;99.90;;;10.34;100.00;102948.50;4879257;29;20124;-70
2023/12/18 06:07:13;;;;;;;37.70;23.58;;;10.10;99.90;;;10.32;100.00;102955.50;4877850;29;20099;-70
2023/12/18 06:09:43;;;;;;;34.20;21.95;;;10.10;99.90;;;10.38;100.00;102950.38;4878954;29;20061;-70
2023/12/18 06:12:12;;;;;;;33.45;22.48;;;10.10;99.90;;;10.43;100.00;102956.72;4879024;29;20132;-70
2023/12/18 06:14:41;;;;;;;37.83;22.30;;;10.10;99.90;;;10.41;100.00;102964.63;4878955;29;20045;-70
2023/12/18 06:17:11;;;;;;;37.75;23.90;;;10.10;99.90;;;10.51;100.00;102963.16;4879019;29;20045;-70
2023/12/18 06:19:40;;;;;;;35.40;22.10;;;10.20;99.90;;;10.52;100.00;102964.94;4879028;29;20045;-70
2023/12/18 06:22:11;;;;;;;33.10;22.95;;;10.30;99.90;;;10.50;99.84;102969.28;4878812;29;20136;-70
2023/12/18 06:24:39;;;;;;;40.28;22.10;;;10.20;99.90;;;10.49;100.00;102959.56;4878813;29;20128;-70
2023/12/18 06:27:09;;;;;;;35.03;22.67;;;10.30;99.90;;;10.51;100.00;102964.03;4879319;29;20479;-70
2023/12/18 06:29:38;;;;;;;40.70;23.52;;;10.30;99.90;;;10.41;99.97;102964.63;4877811;29;20452;-70
2023/12/18 06:32:07;;;;;;;36.22;22.70;;;10.20;99.90;;;10.42;100.00;102960.22;4878855;29;20049;-70
2023/12/18 06:34:39;;;;;;;32.75;22.80;;;10.20;99.90;;;10.34;100.00;102962.63;4879011;29;20060;-72
2023/12/18 06:37:09;;;;;;;;;;;10.10;99.90;;;10.30;100.00;102967.81;4879202;29;20048;-71
2023/12/18 06:39:37;;;;;;;38.25;24.40;;;10.10;99.90;;;10.24;100.00;102964.97;4878782;29;19924;-71
2023/12/18 06:42:06;;;;;;;37.40;24.73;;;10.00;99.90;;;10.30;100.00;102954.59;4878646;29;20495;-71
2023/12/18 06:44:35;;;;;;;37.75;22.88;;;10.00;99.90;;;10.32;100.00;102958.13;4878731;29;20132;-72
2023/12/18 06:47:04;;;;;;;35.23;23.70;;;10.00;99.90;;;10.26;100.00;102963.28;4878724;29;20113;-73
2023/12/18 06:49:33;;;;;;;37.13;23.25;;;10.00;99.90;;;10.22;100.00;102972.84;4878596;29;20473;-72
2023/12/18 06:52:01;;;;;;;36.80;23.65;;;10.00;99.90;;;10.20;100.00;102963.09;4893350;29;20057;-72
2023/12/18 06:54:30;;;;;;;37.80;24.63;;;9.90;99.90;;;10.15;100.00;102949.72;4879145;29;20044;-72
2023/12/18 06:56:58;;;;;;;38.85;23.25;;;9.90;99.90;;;10.11;100.00;102946.91;4908713;29;20061;-71
2023/12/18 06:59:27;;;;;;;35.83;22.77;;;9.90;99.90;;;10.10;100.00;102938.09;4878921;29;20081;-71
2023/12/18 07:01:57;;;;;;;41.35;24.00;;;9.90;99.90;;;10.09;100.00;102930.06;4878504;29;20052;-71
2023/12/18 07:04:25;;;;;;;41.30;24.77;;;9.90;99.90;;;10.17;100.00;102931.22;4893041;29;20543;-71
2023/12/18 07:06:54;;;;;;;43.47;24.65;;;9.90;99.90;;;10.25;100.00;102940.31;4877564;29;20289;-71
2023/12/18 07:09:23;;;;;;;40.35;22.98;;;10.00;99.90;;;10.22;100.00;102937.59;4878426;29;20503;-71
2023/12/18 07:11:52;;;;;;;40.00;24.77;;;9.90;99.90;;;10.09;100.00;102933.63;4878600;29;20060;-71
2023/12/18 07:14:20;;;;;;;40.67;24.85;;;9.90;99.90;;;10.04;100.00;102933.47;4878664;29;20049;-71
2023/12/18 07:16:48;;;;;;;35.22;23.98;;;9.80;99.90;;;10.13;100.00;102942.56;4878348;29;20559;-71
2023/12/18 07:19:18;;;;;;;35.67;24.05;;;9.90;99.90;;;10.13;100.00;102945.22;4878434;29;20056;-72
2023/12/18 07:21:47;;;;;;;43.92;25.90;;;9.90;99.90;;;10.18;100.00;102943.63;4879004;29;20053;-72
2023/12/18 07:24:16;;;;;;;44.00;25.23;;;9.90;99.90;;;10.20;100.00;102947.22;4878491;29;20056;-71
2023/12/18 07:26:45;;;;;;;34.35;24.40;;;9.90;99.90;;;10.23;100.00;102932.31;4892543;29;20101;-71
2023/12/18 07:29:13;;;;;;;41.90;24.00;;;9.90;99.90;;;10.29;100.00;102935.16;4877002;29;20052;-70
2023/12/18 07:31:42;;;;;;;35.55;22.35;;;10.00;99.90;;;10.23;100.00;102931.41;4881698;29;20483;-70
2023/12/18 07:34:10;;;;;;;40.08;24.42;;;10.00;99.90;;;10.18;100.00;102938.34;4880669;29;20049;-70
2023/12/18 07:36:41;;;;;;;42.00;24.95;;;10.00;99.90;;;9.90;100.00;102913.66;4881882;29;20568;-71
2023/12/18 07:39:09;;;;;;;39.15;24.40;;;9.90;99.90;;;10.12;100.00;102944.34;4881936;29;20396;-71
2023/12/18 07:41:38;;;;;;;39.70;24.50;;;9.80;99.90;;;10.09;100.00;102944.19;4881453;29;20069;-71
2023/12/18 07:44:06;;;;;;;41.15;26.23;;;9.90;99.90;;;10.19;100.00;102941.03;4881673;29;20097;-71
2023/12/18 07:46:34;;;;;;;36.97;24.60;;;9.90;99.90;;;10.09;100.00;102936.25;4895892;29;20057;-66
2023/12/18 07:49:03;;;;;;;38.80;23.77;;;9.90;99.90;;;10.13;100.00;102942.56;4881352;29;20049;-65
2023/12/18 07:51:31;;;;;;;39.42;25.00;;;9.90;99.90;;;10.12;100.00;102946.06;4881260;29;20053;-66
2023/12/18 07:54:03;;;;;;;41.08;23.83;;;9.90;99.90;;;10.02;100.00;102936.94;4881345;29;20069;-66
2023/12/18 07:56:31;;;;;;;37.25;24.05;;;9.80;99.90;;;10.05;100.00;102947.59;4881386;29;20055;-67
2023/12/18 07:59:00;;;;;;;37.20;22.73;;;9.80;99.90;;;10.02;100.00;102934.28;4881247;29;20045;-69
2023/12/18 08:01:29;;;;;;;39.15;24.38;;;9.80;99.90;;;10.07;100.00;102939.69;4881231;29;20440;-67
2023/12/18 08:03:57;;;;;;;38.10;23.10;;;9.80;99.90;;;10.09;100.00;102944.19;4895590;29;20051;-67
2023/12/18 08:06:26;;;;;;;35.40;22.08;;;9.80;99.90;;;10.09;100.00;102951.22;4879970;29;20147;-66
2023/12/18 08:08:54;;;;;;;38.67;23.00;;;9.80;99.90;;;10.05;100.00;102947.59;4880898;29;20140;-67
2023/12/18 08:11:24;;;;;;;39.88;24.42;;;9.80;99.90;;;10.03;100.00;102946.66;4881016;29;20125;-70
2023/12/18 08:13:52;;;;;;;38.73;21.90;;;9.80;99.90;;;10.06;100.00;102957.34;4881009;29;20053;-68
2023/12/18 08:16:23;;;;;;;39.25;22.85;;;9.80;99.90;;;10.06;100.00;102951.13;4880877;29;20571;-69
2023/12/18 08:18:52;;;;;;;36.45;22.33;;;9.80;99.90;;;9.98;100.00;102951.81;4880874;29;20049;-70
2023/12/18 08:21:21;;;;;;;44.67;23.77;;;9.80;99.90;;;9.93;100.00;102949.84;4880682;29;20562;-68
2023/12/18 08:23:49;;;;;;;36.47;23.58;;;9.70;99.90;;;9.99;100.00;102953.59;4880717;29;20045;-69
2023/12/18 08:26:18;;;;;;;36.50;23.23;;;9.70;99.90;;;10.06;100.00;102952.03;4880650;29;20052;-70
2023/12/18 08:28:47;;;;;;;34.17;22.80;;;9.80;99.90;;;10.18;100.00;102956.84;4880622;29;20072;-67
2023/12/18 08:31:16;;;;;;;36.70;23.03;;;9.90;99.90;;;10.18;100.00;102956.84;4880569;29;20176;-67
2023/12/18 08:33:45;;;;;;;38.40;23.50;;;9.90;99.90;;;10.16;100.00;102963.84;4880566;29;20507;-66
2023/12/18 08:36:14;;;;;;;32.42;22.25;;;9.90;99.90;;;10.13;100.00;102961.97;4880463;29;20052;-65
2023/12/18 08:38:42;;;;;;;41.92;23.73;;;9.90;99.90;;;10.03;100.00;102958.13;4880423;29;20048;-68
2023/12/18 08:41:11;;;;;;;42.20;24.77;;;9.80;99.90;;;9.97;100.00;102965.84;4880323;29;20045;-66
2023/12/18 08:43:42;;;;;;;36.67;22.08;;;9.80;99.90;;;10.09;100.00;102953.88;4880384;29;20041;-67
2023/12/18 08:46:15;;;;;;;35.58;23.80;;;9.80;99.90;;;10.11;100.00;102958.41;4880395;29;20555;-69
2023/12/18 08:48:43;;;;;;;40.50;23.38;;;9.90;99.90;;;10.16;100.00;102950.63;4880333;29;20053;-67
2023/12/18 08:51:12;;;;;;;37.20;21.90;;;9.90;99.90;;;10.11;100.00;102939.88;4880442;29;20053;-67
2023/12/18 08:53:42;;;;;;;37.58;23.42;;;9.90;99.90;;;9.98;100.00;102941.22;4880326;29;20444;-67
2023/12/18 08:56:10;;;;;;;35.47;22.17;;;9.80;99.90;;;10.03;100.00;102939.63;4880171;29;20084;-68
2023/12/18 08:58:39;;;;;;;46.63;24.92;;;9.80;99.90;;;10.03;100.00;102939.63;4880145;29;20048;-67
2023/12/18 09:01:08;;;;;;;38.35;22.95;;;9.80;99.90;;;10.04;100.00;102928.16;4880324;29;20049;-67
2023/12/18 09:03:37;;;;;;;37.63;24.30;;;9.80;99.90;;;10.12;100.00;102936.41;4879908;29;20068;-67
2023/12/18 09:06:06;;;;;;;36.03;22.45;;;9.90;99.90;;;10.20;100.00;102926.06;4880591;29;20073;-69
2023/12/18 09:08:39;;;;;;;37.33;24.65;;;9.90;99.90;;;10.09;100.00;102922.13;4880085;29;20081;-68
2023/12/18 09:11:09;;;;;;;35.72;25.40;;;9.80;99.90;;;10.15;100.00;102925.00;4880324;29;20045;-67
2023/12/18 09:13:38;;;;;;;45.03;25.15;;;9.90;99.90;;;10.14;100.00;102929.41;4879623;29;20048;-68
2023/12/18 09:16:07;;;;;;;37.15;24.20;;;9.90;99.90;;;10.20;100.00;102920.75;4879875;29;20045;-69
2023/12/18 09:18:37;;;;;;;38.08;23.70;;;10.00;99.90;;;10.18;100.00;102925.97;4879747;29;20052;-68
2023/12/18 09:21:05;;;;;;;41.95;23.65;;;9.90;99.90;;;10.20;100.00;102926.94;4880119;29;20049;-69
2023/12/18 09:23:34;;;;;;;33.72;23.85;;;10.00;99.90;;;10.14;100.00;102936.44;4879690;29;20048;-68
2023/12/18 09:26:03;;;;;;;38.80;24.02;;;9.90;99.90;;;10.06;100.00;102932.63;4879899;29;20053;-70
2023/12/18 09:28:31;;;;;;;37.95;23.83;;;9.90;99.90;;;10.13;100.00;102938.19;4879785;29;20065;-70
2023/12/18 09:31:00;;;;;;;34.55;23.58;;;9.90;99.90;;;10.17;100.00;102929.50;4879575;29;20388;-69
2023/12/18 09:33:28;;;;;;;35.65;23.95;;;9.90;99.90;;;10.20;100.00;102920.75;4879515;29;20576;-70
2023/12/18 09:36:00;;;;;;;40.30;25.17;;;9.90;99.90;;;10.04;100.00;102914.94;4879448;29;20052;-70
2023/12/18 09:38:29;;;;;;;40.65;23.23;;;9.90;99.90;;;10.04;100.00;102919.38;4879488;29;20124;-71
2023/12/18 09:40:58;;;;;;;39.97;23.95;;;9.80;99.90;;;10.11;100.00;102925.75;4879423;29;20128;-71
2023/12/18 09:43:27;;;;;;;36.25;24.50;;;9.80;99.90;;;10.20;100.00;102918.13;4879283;29;20053;-70
2023/12/18 09:45:59;;;;;;;35.92;23.95;;;9.90;99.90;;;10.19;100.00;102932.19;4879236;29;20422;-70
2023/12/18 09:48:27;;;;;;;38.13;24.00;;;10.00;99.90;;;10.24;100.00;102920.00;4879401;29;20049;-70
2023/12/18 09:50:58;;;;;;;39.15;24.15;;;10.00;99.90;;;10.14;100.00;102925.88;4879209;29;20064;-70
2023/12/18 09:53:27;;;;;;;39.80;23.23;;;9.90;99.90;;;10.28;100.00;102919.25;4878983;29;20041;-70
2023/12/18 09:55:57;;;;;;;34.72;24.00;;;10.00;99.90;;;10.23;100.00;102907.63;4879148;29;20123;-71
2023/12/18 09:58:26;;;;;;;37.97;23.88;;;10.00;99.90;;;10.25;100.00;102909.47;4878085;29;20514;-70
2023/12/18 10:00:55;;;;;;;40.70;23.98;;;10.00;99.90;;;10.26;100.00;102897.16;4879135;29;20397;-70
2023/12/18 10:03:24;;;;;;;38.42;22.73;;;10.00;99.90;;;10.24;100.00;102888.28;4879370;29;20045;-70
2023/12/18 10:05:52;;;;;;;36.78;22.58;;;10.00;99.90;;;10.28;100.00;102909.53;4879062;29;20049;-69